Acaiaca, Brazil
Current Conditions -  °F | °C
As of 4:00 PM on Thursday 30 Oct 2014 (Local Time) from SBCF Reporting Station
Light Rain Light Rain  
Wind Chill: 72°   Ceiling: 10000
Heat Index: 72°   Visibility: 3mi
Dew Point: 66°   Wind: 6mph
Humidity: 83%   Direction: 90°E
Pressure: 29.97"   Gusts: NA
Location:  20.36°S, 43.14°W
Report Text: SBCF 301800Z 09005KT 5000 -RA SCT030 BKN100 22/19 Q1015 RETS
Loading
Personal Weather Stations






























Interactive Weather Map
Tropical Storm Tracking
New forecast layout! Learn more

10-Day Weather Forecast

Advertisements
Track Severe Weather on mobile